Flora Vista, New Mexico
Current Conditions -  °F | °C
As of 3:20 PM on Monday 20 Oct 2014 (Local Time) from KFMN Reporting Station
Overcast Overcast  
Wind Chill: 66°   Ceiling: 9500
Heat Index: 66°   Visibility: 10mi
Dew Point: 40°   Wind: 20mph
Humidity: 38%   Direction: 210°SSW
Pressure: 30.11"   Gusts: 30mph
Location:  36.79°N, 108.04°W
Report Text: KFMN 202120Z 21017G26KT 10SM FEW047 BKN095 OVC120 19/04 A3011 RMK AO2 PK WND 21026/2116 T01890044
Loading
Personal Weather Stations






























Interactive Weather Map
Tropical Storm Tracking
New forecast layout! Learn more

10-Day Weather Forecast

Advertisements
Track Severe Weather on mobile